Watson Lake Airport
CYQH : now visible

Airfield :











YOU CAN JOIN US ON...

 
LOGIN :

Register | Disclaimer

   EN    FR    IT 

 









Legend :    VFR   Marginal VFR   IFR   Intensive IFR   Very Intensive IFR
Visi :
Ceiling :
>= 8 km
>= 3000ft
5 to 8 km
1000 to 3000 ft
1500m to 5 km
500 to 1000 ft
800 to 1500m
200 to 500 ft
< 800m
< 200 ft
Symbols :   Thunderstorms  Fog  Heavy snow  Heavy precipitations  Wind > 20 kt






- Airport Elevation : 2255 ft
- IATA code : YQH


CYQH - Watson Lake

CURRENT METAR :
  • 060400Z 28004KT 10SM -SN OVC064 M16/M18 A2979 RMK SC8 SLP152

EXPIRED METARs :
  • 060300Z 00000KT 5SM -SN OVC064 M15/M18 A2981 RMK SC8 SLP158
  • 060200Z 28004KT 5SM -SN OVC040 M15/M18 A2983 RMK SC8 SLP163

TAF AMD TAF CYQH
Valid from the 06 at 02:00 until the 06 at 12:00 UTC


060217Z 0602/0612 VRB03KT P6SM FEW020 BKN080
TEMPO 0602/0605 5SM -SN BKN020 OVC050
FM060500 VRB03KT P6SM SCT060
TEMPO 0605/0609 P6SM -SN BKN060
FM060900 VRB03KT P6SM SCT100
PROB30 0609/0612 1SM BR BKN005 RMK NXT FCST BY 060600Z



MET'MAP, your aeronautical weather chart ! - Copyright ORBIFLY December 2007 - Disclaimer

ORBIFLY MET'MAP TEAM :

Programming & Development : Alexandra Zaïnal
Concept & original design : Baudouin d'Aumeries
Assistance for programming : Marc-Olivier Méhu
Technical & hardware support : Manuel Goepfert

Contact : metmap@orbifly.com




SOURCES & CREDITS :

   NOAA       Earth
Advisory